Time;durP1;ratioP1;P1;durP2;ratioP2;P2;SDS_P1;SDS_P2;PMS_P1;PMS_P2;Temp;Humidity;BMP_temperature;BMP_pressure;BME280_temperature;BME280_humidity;BME280_pressure;Samples;Min_cycle;Max_cycle;Signal;HPM_P1;HPM_P2
2022/04/24 00:01:55;;;;;;;41.00;36.92;;;333.70;2329.60;;;;;;5095581;28;20457;-77
2022/04/24 00:04:21;;;;;;;43.00;38.50;;;333.60;2329.60;;;;;;5095671;28;20387;-77
2022/04/24 00:06:47;;;;;;;43.70;39.05;;;333.60;2329.60;;;;;;5095732;28;20929;-77
2022/04/24 00:09:14;;;;;;;44.80;40.00;;;333.60;2329.60;;;;;;5095410;28;20372;-77
2022/04/24 00:11:41;;;;;;;45.03;39.80;;;333.70;2329.60;;;;;;5095533;28;20429;-77
2022/04/24 00:14:10;;;;;;;44.55;39.85;;;333.60;2329.60;;;;;;5093978;28;20360;-77
2022/04/24 00:16:37;;;;;;;44.50;39.72;;;333.60;2329.60;;;;;;5094036;28;20404;-77
2022/04/24 00:19:03;;;;;;;43.80;38.90;;;333.60;2329.60;;;;;;5093841;28;20734;-77
2022/04/24 00:21:30;;;;;;;44.03;39.38;;;333.70;2329.60;;;;;;5093983;28;20380;-77
2022/04/24 00:23:56;;;;;;;45.38;40.47;;;333.70;2329.60;;;;;;5095191;28;20372;-79
2022/04/24 00:26:22;;;;;;;42.15;37.85;;;333.70;2329.60;;;;;;5095047;28;20367;-77
2022/04/24 00:28:48;;;;;;;44.90;40.10;;;333.70;2329.60;;;;;;5095510;28;20879;-76
2022/04/24 00:31:13;;;;;;;43.92;39.22;;;333.60;2329.60;;;;;;5093801;28;20403;-77
2022/04/24 00:33:39;;;;;;;42.20;37.80;;;333.70;2329.60;;;;;;5101620;28;20901;-76
2022/04/24 00:36:05;;;;;;;40.35;36.05;;;333.70;2329.60;;;;;;5115326;28;20754;-77
2022/04/24 00:38:35;;;;;;;42.22;37.83;;;333.70;2329.60;;;;;;5097065;28;20382;-77
2022/04/24 00:41:01;;;;;;;42.67;38.17;;;333.60;2329.60;;;;;;5096988;28;20412;-80
2022/04/24 00:43:27;;;;;;;41.05;36.88;;;333.60;2329.60;;;;;;5096983;28;20363;-77
2022/04/24 00:46:07;;;;;;;41.80;37.35;;;333.60;2329.60;;;;;;5115033;28;20427;-76
2022/04/24 00:48:34;;;;;;;41.42;37.08;;;333.60;2329.60;;;;;;5099665;28;20371;-76
2022/04/24 00:51:00;;;;;;;40.03;35.83;;;333.70;2329.60;;;;;;5113715;28;20406;-82
2022/04/24 00:53:26;;;;;;;41.08;36.30;;;333.60;2329.60;;;;;;5113875;28;20413;-77
2022/04/24 00:55:52;;;;;;;40.23;36.03;;;333.60;2329.60;;;;;;5114932;28;20807;-77
2022/04/24 00:58:18;;;;;;;39.58;35.47;;;333.60;2329.60;;;;;;5113396;28;20371;-77
2022/04/24 01:00:45;;;;;;;41.80;37.17;;;333.60;2329.60;;;;;;5113811;28;20372;-77
2022/04/24 01:03:13;;;;;;;41.90;37.47;;;333.60;2329.60;;;;;;5113403;28;20366;-76
2022/04/24 01:05:39;;;;;;;43.35;38.67;;;333.60;2329.60;;;;;;5114680;28;20483;-78
2022/04/24 01:08:05;;;;;;;41.07;36.57;;;333.60;2329.60;;;;;;5113583;28;20407;-77
2022/04/24 01:10:40;;;;;;;43.97;39.38;;;333.60;2329.60;;;;;;5114654;28;20374;-77
2022/04/24 01:13:06;;;;;;;42.15;37.72;;;333.60;2329.60;;;;;;5114377;28;20367;-77
2022/04/24 01:15:33;;;;;;;41.80;37.42;;;333.60;2329.60;;;;;;5114041;28;20413;-78
2022/04/24 01:18:00;;;;;;;42.47;37.88;;;333.50;2329.60;;;;;;5113292;28;20367;-77
2022/04/24 01:20:26;;;;;;;43.15;38.53;;;333.50;2329.60;;;;;;5114437;28;20391;-77
2022/04/24 01:22:52;;;;;;;43.20;38.72;;;333.60;2329.60;;;;;;5114492;28;20386;-77
2022/04/24 01:25:19;;;;;;;43.22;38.55;;;333.60;2329.60;;;;;;5112909;28;20493;-77
2022/04/24 01:27:44;;;;;;;40.80;36.63;;;333.60;2329.60;;;;;;5114192;28;20837;-77
2022/04/24 01:30:11;;;;;;;41.00;36.73;;;333.60;2329.60;;;;;;5113166;28;20410;-81
2022/04/24 01:32:38;;;;;;;42.70;38.30;;;333.60;2329.60;;;;;;5112700;28;20739;-77
2022/04/24 01:35:07;;;;;;;41.92;37.42;;;333.60;2329.60;;;;;;5112892;28;20387;-77
2022/04/24 01:37:33;;;;;;;43.95;39.45;;;333.50;2329.60;;;;;;5113957;28;20385;-77
2022/04/24 01:39:59;;;;;;;40.97;36.58;;;333.40;2329.60;;;;;;5114033;28;20385;-82
2022/04/24 01:42:25;;;;;;;43.15;38.58;;;333.40;2329.60;;;;;;5114195;28;20370;-77
2022/04/24 01:44:51;;;;;;;41.97;37.67;;;333.30;2329.60;;;;;;5112724;28;20428;-78
2022/04/24 01:47:17;;;;;;;43.70;39.13;;;333.30;2329.60;;;;;;5112796;28;20371;-78
2022/04/24 01:49:43;;;;;;;43.83;39.33;;;333.30;2329.60;;;;;;5112494;28;20629;-78
2022/04/24 01:52:09;;;;;;;41.70;37.30;;;333.40;2329.60;;;;;;5112700;28;20413;-79
2022/04/24 01:54:35;;;;;;;43.72;39.15;;;333.30;2329.60;;;;;;5112737;28;20792;-79
2022/04/24 01:57:01;;;;;;;44.03;39.28;;;333.30;2329.60;;;;;;5112421;28;20756;-79
2022/04/24 01:59:27;;;;;;;43.70;39.15;;;333.20;2329.60;;;;;;5112456;28;20499;-79
2022/04/24 02:01:53;;;;;;;44.83;40.03;;;333.10;2329.60;;;;;;5112536;28;20857;-77
2022/04/24 02:04:22;;;;;;;46.58;40.63;;;333.20;2329.60;;;;;;5113698;28;20371;-78
2022/04/24 02:06:49;;;;;;;43.80;39.20;;;333.20;2329.60;;;;;;5112340;28;20389;-78
2022/04/24 02:09:16;;;;;;;46.38;41.28;;;333.20;2329.60;;;;;;5113519;27;20359;-78
2022/04/24 02:11:42;;;;;;;44.72;40.08;;;333.20;2329.60;;;;;;5112292;28;20406;-77
2022/04/24 02:14:08;;;;;;;45.23;40.33;;;333.20;2329.60;;;;;;5113491;28;20420;-77
2022/04/24 02:16:34;;;;;;;45.60;40.73;;;333.20;2329.60;;;;;;5112082;28;20394;-78
2022/04/24 02:19:00;;;;;;;43.72;39.10;;;333.20;2329.60;;;;;;5113418;28;20370;-78
2022/04/24 02:21:28;;;;;;;45.55;40.65;;;333.20;2329.60;;;;;;5112071;28;20367;-77
2022/04/24 02:23:55;;;;;;;45.00;40.10;;;333.20;2329.60;;;;;;5112322;28;20500;-77
2022/04/24 02:26:21;;;;;;;45.22;40.45;;;333.30;2329.60;;;;;;5113212;28;20375;-78
2022/04/24 02:28:46;;;;;;;43.60;38.87;;;333.30;2329.60;;;;;;5113393;28;20401;-77
2022/04/24 02:31:13;;;;;;;44.72;39.92;;;333.30;2329.60;;;;;;5111544;28;20377;-77
2022/04/24 02:33:39;;;;;;;44.33;39.15;;;333.30;2329.60;;;;;;5111586;28;20395;-76
2022/04/24 02:36:05;;;;;;;43.67;39.05;;;333.30;2329.60;;;;;;5111744;28;20402;-77
2022/04/24 02:38:31;;;;;;;41.50;36.97;;;333.30;2329.60;;;;;;5111662;28;20467;-77
2022/04/24 02:40:58;;;;;;;43.83;39.20;;;333.30;2329.60;;;;;;5113054;28;20461;-82
2022/04/24 02:43:24;;;;;;;44.38;39.60;;;333.40;2329.60;;;;;;5113056;28;20743;-76
2022/04/24 02:45:50;;;;;;;42.53;38.13;;;333.40;2329.60;;;;;;5112911;28;20396;-76
2022/04/24 02:48:16;;;;;;;43.97;39.38;;;333.40;2329.60;;;;;;5111407;28;20402;-77
2022/04/24 02:50:42;;;;;;;43.70;39.00;;;333.50;2329.60;;;;;;5093659;28;20386;-76
2022/04/24 02:53:08;;;;;;;41.38;36.97;;;333.60;2329.60;;;;;;5112827;28;20366;-77
2022/04/24 02:55:34;;;;;;;40.67;36.42;;;333.60;2329.60;;;;;;5112774;28;20397;-76
2022/04/24 02:57:59;;;;;;;42.73;38.23;;;333.70;2329.60;;;;;;5094523;28;20387;-77
2022/04/24 03:00:39;;;;;;;41.38;37.08;;;333.60;2329.60;;;;;;5112964;28;20374;-77
2022/04/24 03:03:09;;;;;;;42.13;37.70;;;333.60;2329.60;;;;;;5094185;28;20427;-77
2022/04/24 03:05:35;;;;;;;41.20;37.00;;;333.50;2329.60;;;;;;5094442;28;20367;-77
2022/04/24 03:08:02;;;;;;;42.33;37.67;;;333.50;2329.60;;;;;;5094582;28;20424;-78
2022/04/24 03:10:28;;;;;;;44.38;39.50;;;333.50;2329.60;;;;;;5094512;28;20378;-77
2022/04/24 03:12:54;;;;;;;43.53;39.03;;;333.40;2329.60;;;;;;5094366;28;20374;-77
2022/04/24 03:15:20;;;;;;;41.90;37.47;;;333.50;2329.60;;;;;;5112389;28;20374;-77
2022/04/24 03:17:46;;;;;;;42.20;37.55;;;333.50;2329.60;;;;;;5112586;28;20425;-77
2022/04/24 03:20:13;;;;;;;40.92;36.42;;;333.50;2329.60;;;;;;5112356;28;20391;-77
2022/04/24 03:22:39;;;;;;;42.67;38.17;;;333.30;2329.60;;;;;;5094322;28;20383;-76
2022/04/24 03:25:07;;;;;;;42.63;38.03;;;333.30;2329.60;;;;;;5094168;28;20367;-77
2022/04/24 03:27:33;;;;;;;41.13;36.92;;;333.30;2329.60;;;;;;5112551;28;20374;-76
2022/04/24 03:29:59;;;;;;;43.05;38.53;;;333.40;2329.60;;;;;;5112551;28;20375;-73
2022/04/24 03:32:29;;;;;;;42.30;37.70;;;333.40;2329.60;;;;;;5112336;28;20845;-73
2022/04/24 03:34:55;;;;;;;40.85;36.45;;;333.30;2329.60;;;;;;5112106;28;20391;-73
2022/04/24 03:37:20;;;;;;;41.43;37.03;;;333.40;2329.60;;;;;;5112362;28;20413;-73
2022/04/24 03:39:46;;;;;;;42.33;37.92;;;333.30;2329.60;;;;;;5112225;28;20363;-73
2022/04/24 03:42:12;;;;;;;40.93;36.63;;;333.30;2329.60;;;;;;5112371;28;20377;-73
2022/04/24 03:44:38;;;;;;;42.83;36.28;;;333.30;2329.60;;;;;;5112209;28;20419;-73
2022/04/24 03:47:05;;;;;;;40.77;36.07;;;333.40;2329.60;;;;;;5112346;28;20466;-74
2022/04/24 03:49:31;;;;;;;42.05;37.65;;;333.40;2329.60;;;;;;5112201;28;20373;-73
2022/04/24 03:51:56;;;;;;;40.15;35.78;;;333.40;2329.60;;;;;;5112033;28;20367;-74
2022/04/24 03:54:22;;;;;;;42.10;37.60;;;333.40;2329.60;;;;;;5112032;28;20863;-73
2022/04/24 03:56:48;;;;;;;42.33;37.65;;;333.40;2329.60;;;;;;5111902;28;20428;-73
2022/04/24 03:59:14;;;;;;;42.30;36.20;;;333.50;2329.60;;;;;;5112381;28;20431;-73
2022/04/24 04:01:40;;;;;;;38.22;34.08;;;333.50;2329.60;;;;;;5113704;28;20886;-73
2022/04/24 04:04:06;;;;;;;38.13;34.13;;;333.50;2329.60;;;;;;5115957;28;20358;-78
2022/04/24 04:06:31;;;;;;;38.05;33.13;;;333.60;2329.60;;;;;;5097591;28;20382;-73
2022/04/24 04:08:57;;;;;;;37.40;33.47;;;333.60;2329.60;;;;;;5115921;28;20370;-74
2022/04/24 04:11:23;;;;;;;37.00;33.10;;;333.70;2329.60;;;;;;5097365;28;20379;-73
2022/04/24 04:13:49;;;;;;;37.03;33.05;;;358.40;2329.60;;;;;;5097495;28;20696;-73
2022/04/24 04:16:15;;;;;;;37.85;33.80;;;333.70;2329.60;;;;;;5115582;28;20444;-73
2022/04/24 04:18:41;;;;;;;37.60;33.70;;;333.70;2329.60;;;;;;5115924;28;20403;-73
2022/04/24 04:21:07;;;;;;;37.92;34.03;;;333.70;2329.60;;;;;;5115587;28;20366;-73
2022/04/24 04:23:33;;;;;;;37.07;33.13;;;333.70;2329.60;;;;;;5097134;28;20810;-73
2022/04/24 04:25:59;;;;;;;36.88;32.92;;;333.70;2329.60;;;;;;5097270;28;20757;-74
2022/04/24 04:28:25;;;;;;;36.58;32.70;;;358.40;2329.60;;;;;;5115446;28;20374;-73
2022/04/24 04:30:51;;;;;;;33.10;29.60;;;358.40;2329.60;;;;;;5115522;28;20366;-73
2022/04/24 04:33:16;;;;;;;34.67;30.92;;;358.40;2329.60;;;;;;5115199;28;20371;-73
2022/04/24 04:35:42;;;;;;;33.27;29.80;;;358.40;2329.60;;;;;;5114476;28;20402;-74
2022/04/24 04:38:08;;;;;;;33.05;29.52;;;358.50;2329.60;;;;;;5114344;28;20458;-73
2022/04/24 04:40:34;;;;;;;34.05;30.45;;;358.60;2329.60;;;;;;5095988;28;20371;-73
2022/04/24 04:43:00;;;;;;;33.23;29.63;;;358.60;2329.60;;;;;;5096031;28;20382;-76
2022/04/24 04:45:26;;;;;;;33.47;29.58;;;358.70;2329.60;;;;;;5114193;28;20375;-73
2022/04/24 04:47:52;;;;;;;33.83;30.25;;;358.70;2329.60;;;;;;5114025;28;20773;-74
2022/04/24 04:50:18;;;;;;;33.77;29.90;;;358.80;2329.60;;;;;;5113524;28;20381;-77
2022/04/24 04:52:44;;;;;;;34.65;30.05;;;358.70;2329.60;;;;;;5113038;28;20367;-73
2022/04/24 04:55:10;;;;;;;33.13;29.67;;;358.80;2329.60;;;;;;5113071;28;20374;-73
2022/04/24 04:57:36;;;;;;;31.88;28.48;;;358.80;2329.60;;;;;;5094726;28;20918;-73
2022/04/24 05:00:07;;;;;;;32.78;29.38;;;358.80;2329.60;;;;;;5113051;28;20367;-74
2022/04/24 05:02:37;;;;;;;32.30;28.90;;;358.80;2329.60;;;;;;5094469;28;20399;-73
2022/04/24 05:05:07;;;;;;;32.75;29.38;;;358.90;2329.60;;;;;;5094517;28;20760;-73
2022/04/24 05:07:33;;;;;;;34.53;30.85;;;358.90;2329.60;;;;;;5096032;28;20894;-73
2022/04/24 05:09:59;;;;;;;36.43;32.63;;;358.90;2329.60;;;;;;5114701;28;20379;-73
2022/04/24 05:12:27;;;;;;;36.58;32.55;;;359.00;2329.60;;;;;;5114051;28;20386;-72
2022/04/24 05:14:53;;;;;;;32.80;29.42;;;358.90;2329.60;;;;;;5114713;28;20397;-73
2022/04/24 05:17:19;;;;;;;33.30;29.70;;;359.20;2329.60;;;;;;5114445;28;20495;-73
2022/04/24 05:19:45;;;;;;;33.33;29.42;;;359.00;2329.60;;;;;;5114734;28;20426;-73
2022/04/24 05:22:11;;;;;;;31.23;27.97;;;359.00;2329.60;;;;;;5114429;28;20461;-73
2022/04/24 05:24:36;;;;;;;32.92;28.67;;;359.10;2329.60;;;;;;5096132;28;20394;-73
2022/04/24 05:27:02;;;;;;;31.23;27.80;;;359.10;2329.60;;;;;;5114540;28;20382;-73
2022/04/24 05:29:28;;;;;;;32.20;28.77;;;359.00;2329.60;;;;;;5096030;28;20406;-73
2022/04/24 05:31:54;;;;;;;31.60;28.30;;;359.20;2329.60;;;;;;5114311;28;20870;-73
2022/04/24 05:34:20;;;;;;;31.40;28.20;;;359.30;2329.60;;;;;;5113957;28;20473;-73
2022/04/24 05:36:46;;;;;;;31.67;28.35;;;359.20;2329.60;;;;;;5114136;28;20433;-73
2022/04/24 05:39:12;;;;;;;31.20;27.80;;;359.30;2329.60;;;;;;5114117;28;20432;-73
2022/04/24 05:41:37;;;;;;;31.27;27.88;;;384.00;2329.60;;;;;;5114054;28;20420;-73
2022/04/24 05:44:04;;;;;;;31.07;27.87;;;359.30;2329.60;;;;;;5095766;28;20436;-72
2022/04/24 05:46:30;;;;;;;31.92;28.52;;;359.30;2329.60;;;;;;5113973;28;20379;-73
2022/04/24 05:48:58;;;;;;;31.20;28.00;;;384.00;2329.60;;;;;;5095578;28;20863;-77
2022/04/24 05:51:24;;;;;;;30.08;26.88;;;384.10;2329.60;;;;;;5114118;28;20469;-73
2022/04/24 05:53:50;;;;;;;29.40;26.40;;;384.20;2329.60;;;;;;5114056;28;20470;-77
2022/04/24 05:56:16;;;;;;;31.57;27.17;;;384.30;2329.60;;;;;;5113661;28;20953;-73
2022/04/24 05:58:42;;;;;;;29.73;26.10;;;384.40;2329.60;;;;;;5113773;28;20427;-73
2022/04/24 06:01:07;;;;;;;29.98;26.77;;;384.50;2329.60;;;;;;5113651;28;20720;-74
2022/04/24 06:03:36;;;;;;;29.30;26.25;;;384.50;2329.60;;;;;;5095430;28;20371;-73
2022/04/24 06:06:02;;;;;;;29.73;26.52;;;384.60;2329.60;;;;;;5113600;28;20375;-73
2022/04/24 06:08:28;;;;;;;29.73;26.25;;;384.70;2329.60;;;;;;5113669;28;20453;-73
2022/04/24 06:10:54;;;;;;;30.17;25.67;;;384.70;2329.60;;;;;;5113898;28;20939;-73
2022/04/24 06:13:21;;;;;;;27.52;24.65;;;384.80;2329.60;;;;;;5113882;28;20415;-73
2022/04/24 06:15:47;;;;;;;27.10;24.30;;;384.90;2329.60;;;;;;5113241;28;20386;-76
2022/04/24 06:18:13;;;;;;;27.50;24.60;;;409.70;2355.20;;;;;;5113472;28;20410;-77
2022/04/24 06:20:39;;;;;;;27.80;24.52;;;409.80;2355.20;;;;;;5094811;28;20371;-74
2022/04/24 06:23:05;;;;;;;25.95;23.15;;;409.80;2355.20;;;;;;5094628;28;20379;-74
2022/04/24 06:25:32;;;;;;;27.27;22.77;;;409.80;2355.20;;;;;;5112756;28;20715;-74
2022/04/24 06:27:59;;;;;;;26.20;23.13;;;409.70;2355.20;;;;;;5110276;28;20700;-78
2022/04/24 06:30:27;;;;;;;25.38;22.67;;;409.80;2355.20;;;;;;5112817;28;20375;-78
2022/04/24 06:32:54;;;;;;;26.15;23.38;;;410.00;2355.20;;;;;;5112999;28;20379;-73
2022/04/24 06:35:20;;;;;;;27.40;24.50;;;410.10;2355.20;;;;;;5094618;28;20386;-73
2022/04/24 06:37:48;;;;;;;29.93;25.57;;;410.10;2355.20;;;;;;5112971;28;20374;-73
2022/04/24 06:40:16;;;;;;;27.02;24.17;;;410.30;2355.20;;;;;;5113470;28;20383;-73
2022/04/24 06:42:54;;;;;;;26.67;23.92;;;410.30;2355.20;;;;;;5112462;28;20355;-78
2022/04/24 06:45:27;;;;;;;27.83;24.83;;;435.20;2355.20;;;;;;5113489;28;20730;-73
2022/04/24 06:47:54;;;;;;;26.83;23.98;;;435.30;2355.20;;;;;;5113400;28;20362;-74
2022/04/24 06:50:22;;;;;;;28.08;24.08;;;435.50;2355.20;;;;;;5113092;28;20871;-73
2022/04/24 06:53:03;;;;;;;23.97;21.37;;;435.60;2355.20;;;;;;5112978;28;20452;-72
2022/04/24 06:55:30;;;;;;;24.80;22.15;;;435.90;2355.20;;;;;;5113061;28;20742;-73
2022/04/24 06:57:57;;;;;;;27.45;22.42;;;436.00;2355.20;;;;;;5113310;28;20443;-78
2022/04/24 07:00:25;;;;;;;26.93;23.67;;;461.00;2380.80;;;;;;5112333;28;20861;-78
2022/04/24 07:02:51;;;;;;;24.92;21.70;;;461.40;2380.80;;;;;;5112337;28;20371;-76
2022/04/24 07:05:21;;;;;;;24.48;21.85;;;461.40;2380.80;;;;;;5094337;28;20367;-73
2022/04/24 07:07:47;;;;;;;23.42;20.80;;;461.70;2380.80;;;;;;5094508;28;20387;-73
2022/04/24 07:10:13;;;;;;;23.53;20.87;;;486.70;2380.80;;;;;;5112815;28;20403;-73
2022/04/24 07:12:50;;;;;;;21.13;18.57;;;486.70;2380.80;;;;;;5113542;28;20708;-73
2022/04/24 07:15:17;;;;;;;22.40;19.05;;;486.70;2380.80;;;;;;5112326;28;20367;-73
2022/04/24 07:17:47;;;;;;;19.50;17.48;;;487.10;2380.80;;;;;;5112625;28;20419;-74
2022/04/24 07:20:15;;;;;;;18.85;16.85;;;487.30;2380.80;;;;;;5094644;28;20369;-79
2022/04/24 07:22:52;;;;;;;20.40;16.60;;;487.30;2380.80;;;;;;5094447;28;20375;-82
2022/04/24 07:25:22;;;;;;;18.65;16.73;;;512.00;2380.80;;;;;;5112732;28;20441;-80
2022/04/24 07:27:49;;;;;;;19.83;17.45;;;512.30;2380.80;;;;;;5094738;28;20384;-79
2022/04/24 07:30:16;;;;;;;19.42;17.30;;;512.80;2380.80;;;;;;5094196;28;20880;-77
2022/04/24 07:32:47;;;;;;;19.38;17.27;;;512.80;2380.80;;;;;;5094417;28;20390;-79
2022/04/24 07:35:18;;;;;;;17.35;14.82;;;512.80;2380.80;;;;;;5112423;28;20386;-78
2022/04/24 07:37:45;;;;;;;19.85;17.35;;;;;;;;;;5116214;28;20381;-75
2022/04/24 07:40:16;;;;;;;17.67;15.88;;;538.10;2406.40;;;;;;5098370;28;20367;-80
2022/04/24 07:42:55;;;;;;;16.13;13.65;;;538.20;2406.40;;;;;;5098085;28;20381;-79
2022/04/24 07:45:31;;;;;;;15.30;13.00;;;538.10;2406.40;;;;;;5098331;28;20389;-80
2022/04/24 07:47:59;;;;;;;12.90;10.20;;;538.30;2406.40;;;;;;5098330;28;20743;-78
2022/04/24 07:50:31;;;;;;;22.67;11.93;;;538.40;2278.40;;;;;;5116308;28;20386;-78
2022/04/24 07:52:57;;;;;;;15.55;12.07;;;538.50;2201.60;;;;;;5098149;28;20421;-85
2022/04/24 07:55:24;;;;;;;17.88;12.25;;;538.40;2201.60;;;;;;5116393;28;20382;-76
2022/04/24 07:57:53;;;;;;;16.52;12.07;;;538.40;2099.20;;;;;;5117265;28;20390;-81
2022/04/24 08:00:21;;;;;;;13.02;11.40;;;538.50;2176.00;;;;;;5097216;28;20375;-85
2022/04/24 08:03:01;;;;;;;14.68;11.93;;;538.30;2099.20;;;;;;5097524;28;20394;-78
2022/04/24 08:05:36;;;;;;;14.20;11.57;;;538.30;2124.80;;;;;;5114155;28;20858;-78
2022/04/24 08:08:04;;;;;;;16.08;12.15;;;538.50;2099.20;;;;;;5115799;28;20382;-80
2022/04/24 08:10:32;;;;;;;17.13;11.88;;;563.40;2099.20;;;;;;5097787;28;20431;-73
2022/04/24 08:12:58;;;;;;;15.75;12.60;;;;;;;;;;5115521;28;20371;-80
2022/04/24 08:15:25;;;;;;;15.25;12.60;;;;;;;;;;5115472;28;20367;-77
2022/04/24 08:17:51;;;;;;;12.25;9.30;;;588.90;1971.20;;;;;;5116074;28;20471;-81
2022/04/24 08:20:18;;;;;;;10.27;9.07;;;589.00;1920.00;;;;;;5115937;28;20870;-74
2022/04/24 08:22:44;;;;;;;13.98;11.98;;;589.50;1868.80;;;;;;5116027;28;20414;-78
2022/04/24 08:25:12;;;;;;;10.37;7.10;;;614.40;1792.00;;;;;;5115899;28;20363;-84
2022/04/24 08:27:39;;;;;;;13.30;10.23;;;614.40;1740.80;;;;;;5098085;28;20366;-81
2022/04/24 08:30:06;;;;;;;11.90;10.43;;;614.90;1766.40;;;;;;5116968;28;20020;-76
2022/04/24 08:32:33;;;;;;;11.35;8.10;;;615.10;1715.20;;;;;;5098691;28;20064;-77
2022/04/24 08:34:59;;;;;;;12.77;8.23;;;640.00;1664.00;;;;;;5099029;28;20051;-74
2022/04/24 08:37:26;;;;;;;9.45;6.15;;;615.20;1638.40;;;;;;5098994;28;20054;-89
2022/04/24 08:39:53;;;;;;;14.02;8.40;;;640.30;1612.80;;;;;;5117045;28;20099;-74
2022/04/24 08:42:21;;;;;;;12.00;7.55;;;640.50;1612.80;;;;;;5117240;28;20024;-84
2022/04/24 08:44:51;;;;;;;10.25;7.53;;;640.50;1587.20;;;;;;5117028;28;20078;-76
2022/04/24 08:47:19;;;;;;;9.18;7.15;;;640.30;1638.40;;;;;;5115197;28;20027;-73
2022/04/24 08:49:45;;;;;;;11.10;4.60;;;640.10;1689.60;;;;;;5097257;28;20015;-85
2022/04/24 08:52:13;;;;;;;11.90;6.13;;;615.10;1612.80;;;;;;5097706;28;20031;-71
2022/04/24 08:54:45;;;;;;;9.30;4.32;;;615.00;1612.80;;;;;;5114714;28;20016;-74
2022/04/24 08:57:14;;;;;;;5.38;3.95;;;614.80;1664.00;;;;;;5097434;28;20545;-72
2022/04/24 08:59:40;;;;;;;8.27;2.78;;;614.40;1612.80;;;;;;5116224;28;20020;-72
2022/04/24 09:02:07;;;;;;;4.97;2.20;;;589.60;1638.40;;;;;;5116190;28;20106;-73
2022/04/24 09:04:34;;;;;;;5.70;2.72;;;589.60;1638.40;;;;;;5116134;28;20022;-73
2022/04/24 09:07:03;;;;;;;8.73;2.35;;;589.70;1638.40;;;;;;5116205;28;20038;-71
2022/04/24 09:09:34;;;;;;;4.72;2.20;;;589.60;1612.80;;;;;;5115995;28;20544;-72
2022/04/24 09:12:14;;;;;;;11.48;1.63;;;589.40;1587.20;;;;;;5116259;28;20034;-84
2022/04/24 09:14:40;;;;;;;6.22;1.73;;;589.00;1433.60;;;;;;5115881;28;20106;-72
2022/04/24 09:17:14;;;;;;;5.25;1.58;;;589.20;1433.60;;;;;;5098157;28;20123;-71
2022/04/24 09:19:40;;;;;;;6.13;2.03;;;589.10;1408.00;;;;;;5115739;28;20019;-72
2022/04/24 09:22:08;;;;;;;5.63;2.30;;;589.20;1408.00;;;;;;5115675;28;20030;-72
2022/04/24 09:24:54;;;;;;;5.85;1.40;;;589.30;1382.40;;;;;;5115684;28;20480;-70
2022/04/24 09:27:28;;;;;;;5.70;1.42;;;589.10;1331.20;;;;;;5115541;28;20023;-74
2022/04/24 09:29:58;;;;;;;6.32;1.90;;;589.30;1382.40;;;;;;5115806;28;20019;-74
2022/04/24 09:32:25;;;;;;;13.93;2.10;;;589.40;1382.40;;;;;;5115454;28;20016;-74
2022/04/24 09:34:52;;;;;;;6.82;1.70;;;589.40;1382.40;;;;;;5115261;28;20095;-74
2022/04/24 09:37:18;;;;;;;5.57;1.40;;;589.40;1408.00;;;;;;5115341;28;20035;-76
2022/04/24 09:39:45;;;;;;;8.98;1.85;;;589.60;1408.00;;;;;;5097211;28;20020;-74
2022/04/24 09:42:13;;;;;;;6.40;1.63;;;589.40;1382.40;;;;;;5115167;28;20030;-81
2022/04/24 09:44:42;;;;;;;10.27;1.90;;;589.40;1331.20;;;;;;5115421;28;20384;-76
2022/04/24 09:47:09;;;;;;;7.22;2.03;;;589.40;1356.80;;;;;;5115357;28;20028;-75
2022/04/24 09:49:40;;;;;;;6.20;1.67;;;589.40;1331.20;;;;;;5115183;28;20081;-76
2022/04/24 09:52:13;;;;;;;4.40;1.15;;;589.50;1305.60;;;;;;5115292;28;20501;-75
2022/04/24 09:54:41;;;;;;;4.60;1.40;;;589.60;1280.00;;;;;;5115215;28;20035;-79
2022/04/24 09:57:09;;;;;;;5.35;1.60;;;589.60;1254.40;;;;;;5115011;28;20039;-74
2022/04/24 09:59:41;;;;;;;6.63;1.48;;;589.50;1331.20;;;;;;5096377;28;20026;-74
2022/04/24 10:02:08;;;;;;;6.13;2.10;;;589.50;1254.40;;;;;;5115260;28;20031;-75
2022/04/24 10:04:35;;;;;;;6.45;1.30;;;589.70;1254.40;;;;;;5114987;28;20031;-73
2022/04/24 10:07:11;;;;;;;10.98;2.28;;;614.40;1228.80;;;;;;5115182;28;20031;-74
2022/04/24 10:09:39;;;;;;;7.15;1.77;;;614.60;1228.80;;;;;;5096540;28;20023;-73
2022/04/24 10:12:08;;;;;;;6.55;1.70;;;615.00;1203.20;;;;;;5096526;28;20016;-73
2022/04/24 10:14:55;;;;;;;5.85;2.30;;;614.90;1203.20;;;;;;5114710;28;20031;-73
2022/04/24 10:17:30;;;;;;;9.40;2.00;;;614.80;1177.60;;;;;;5102994;28;20039;-72
2022/04/24 10:20:02;;;;;;;7.03;2.00;;;614.50;1152.00;;;;;;5113645;28;20387;-73
2022/04/24 10:22:40;;;;;;;5.13;2.08;;;589.70;1228.80;;;;;;5113660;28;20031;-74
2022/04/24 10:25:07;;;;;;;7.13;1.73;;;589.50;1228.80;;;;;;5113470;28;20476;-73
2022/04/24 10:27:41;;;;;;;5.88;2.00;;;589.40;1254.40;;;;;;5095165;28;20068;-73
2022/04/24 10:30:24;;;;;;;11.45;2.15;;;589.30;1254.40;;;;;;5113432;28;20404;-74
2022/04/24 10:33:22;;;;;;;4.70;1.47;;;589.10;1228.80;;;;;;5113843;28;20030;-75
2022/04/24 10:35:59;;;;;;;7.68;1.80;;;589.00;1280.00;;;;;;5113106;28;20118;-72
2022/04/24 10:38:28;;;;;;;10.68;1.00;;;588.80;1254.40;;;;;;5095435;28;20051;-71
2022/04/24 10:41:06;;;;;;;5.60;2.05;;;564.00;1228.80;;;;;;5113502;28;20600;-80
2022/04/24 10:43:43;;;;;;;6.75;1.60;;;563.90;1280.00;;;;;;5113121;28;20028;-75
2022/04/24 10:46:20;;;;;;;7.80;1.50;;;563.80;1254.40;;;;;;5114002;28;20023;-73
2022/04/24 10:48:48;;;;;;;5.20;1.30;;;563.70;1228.80;;;;;;5114196;28;20019;-72
2022/04/24 10:51:26;;;;;;;4.50;1.50;;;563.60;1280.00;;;;;;5112991;28;20022;-73
2022/04/24 10:54:00;;;;;;;5.97;1.50;;;563.40;1305.60;;;;;;5113571;28;20098;-75
2022/04/24 10:56:31;;;;;;;3.63;1.42;;;563.50;1280.00;;;;;;5095599;28;20034;-71
2022/04/24 10:59:15;;;;;;;7.00;2.10;;;563.40;1305.60;;;;;;5114204;28;20031;-72
2022/04/24 11:01:46;;;;;;;6.35;2.88;;;563.30;1331.20;;;;;;5113600;28;20047;-71
2022/04/24 11:04:16;;;;;;;7.22;4.00;;;563.20;1331.20;;;;;;5113269;28;20357;-73
2022/04/24 11:07:02;;;;;;;9.18;2.70;;;538.50;1331.20;;;;;;5113491;28;20027;-73
2022/04/24 11:09:35;;;;;;;6.72;3.33;;;538.40;1331.20;;;;;;5113423;28;20028;-76
2022/04/24 11:12:04;;;;;;;7.97;4.30;;;538.40;1331.20;;;;;;5094780;28;20043;-79
2022/04/24 11:14:31;;;;;;;10.43;3.95;;;538.30;1331.20;;;;;;5113133;28;20023;-78
2022/04/24 11:16:58;;;;;;;7.28;3.13;;;538.30;1331.20;;;;;;5113654;28;20044;-78
2022/04/24 11:19:30;;;;;;;9.75;4.10;;;538.20;1356.80;;;;;;5113600;28;20033;-78
2022/04/24 11:22:06;;;;;;;13.65;3.53;;;538.20;1382.40;;;;;;5095601;28;20122;-80
2022/04/24 11:24:34;;;;;;;7.93;2.47;;;538.10;1382.40;;;;;;5112980;28;20055;-80
2022/04/24 11:27:14;;;;;;;6.82;3.40;;;538.10;1382.40;;;;;;5095251;28;20032;-80
2022/04/24 11:29:43;;;;;;;6.80;2.45;;;538.20;1382.40;;;;;;5095340;28;20024;-81
2022/04/24 11:32:14;;;;;;;5.55;2.05;;;538.30;1331.20;;;;;;5113431;28;20503;-79
2022/04/24 11:34:39;;;;;;;6.50;1.98;;;538.30;1382.40;;;;;;5094690;28;20079;-80
2022/04/24 11:37:07;;;;;;;12.35;2.05;;;538.20;1382.40;;;;;;5095220;28;20035;-80
2022/04/24 11:39:33;;;;;;;10.57;1.90;;;538.20;1356.80;;;;;;5113477;28;20131;-77
2022/04/24 11:41:59;;;;;;;14.45;4.57;;;538.20;1356.80;;;;;;5113514;28;20106;-80
2022/04/24 11:50:13;;;;;;;10.63;5.63;;;538.40;1408.00;;;;;;5112982;28;20027;-82
2022/04/24 11:52:40;;;;;;;15.13;3.80;;;563.20;1433.60;;;;;;5094833;28;20116;-81
2022/04/24 11:56:01;;;;;;;12.68;3.83;;;563.20;1459.20;;;;;;5095258;28;20050;-76
2022/04/24 11:58:12;;;;;;;10.02;3.58;;;563.50;1382.40;;;;;;5113145;28;20502;-77
2022/04/24 12:00:38;;;;;;;13.80;4.65;;;563.90;1382.40;;;;;;5113288;28;20020;-75
2022/04/24 12:03:08;;;;;;;12.85;3.92;;;563.90;1356.80;;;;;;5113276;28;20034;-74
2022/04/24 12:05:34;;;;;;;5.78;1.65;;;563.90;1356.80;;;;;;5113370;28;20104;-73
2022/04/24 12:08:04;;;;;;;4.25;1.55;;;564.10;1280.00;;;;;;5113186;28;20020;-74
2022/04/24 12:10:30;;;;;;;9.93;2.13;;;588.80;1305.60;;;;;;5113131;28;20412;-79
2022/04/24 12:12:56;;;;;;;6.45;2.03;;;589.00;1305.60;;;;;;5094442;28;20070;-73
2022/04/24 12:15:24;;;;;;;4.68;2.42;;;589.20;1254.40;;;;;;5095044;28;20077;-75
2022/04/24 12:17:53;;;;;;;6.53;2.83;;;589.40;1280.00;;;;;;5113082;28;20031;-77